Terminal Aerodrome Forecast
Issued by NWS

Home | Current Version | Previous Version | Text Only | Print | Product List | Glossary On
Versions: 1 2 3 4 5 6 7 8 9 10 11 12 13
000
FTUS42 TJSJ 021124
TAFKPK
TAF
TKPK 021124Z 0212/0312 09008KT P6SM VCSH SCT018 SCT050
     FM021330 08010KT P6SM FEW020
     FM022100 05008KT P6SM FEW020
      AMD NOT SKED 0302/0311=

USA.gov is the U.S. government's official web portal to all federal, state and local government web resources and services.